Time;durP1;ratioP1;P1;durP2;ratioP2;P2;SDS_P1;SDS_P2;PMS_P1;PMS_P2;Temp;Humidity;BMP_temperature;BMP_pressure;BME280_temperature;BME280_humidity;BME280_pressure;Samples;Min_cycle;Max_cycle;Signal;HPM_P1;HPM_P2
2023/10/05 00:03:43;;;;;;;14.43;7.55;;;;;;;16.77;100.00;64732.84;5072566;28;20235;-54
2023/10/05 00:06:16;;;;;;;12.57;7.95;;;;;;;16.72;100.00;64726.78;5071287;28;20209;-54
2023/10/05 00:08:48;;;;;;;10.95;7.70;;;;;;;16.65;100.00;64717.06;5072239;28;20678;-55
2023/10/05 00:11:28;;;;;;;12.07;7.57;;;;;;;16.70;100.00;64722.56;5072390;28;20216;-55
2023/10/05 00:13:59;;;;;;;11.10;8.13;;;;;;;16.72;100.00;64721.69;5072186;28;20204;-52
2023/10/05 00:16:37;;;;;;;15.82;7.80;;;;;;;16.63;100.00;64717.41;5072385;28;20250;-53
2023/10/05 00:19:09;;;;;;;14.55;8.38;;;;;;;16.64;100.00;64715.97;5072132;28;20729;-51
2023/10/05 00:21:35;;;;;;;13.02;7.32;;;;;;;16.55;100.00;64708.63;5070863;28;20221;-53
2023/10/05 00:24:06;;;;;;;11.73;7.80;;;;;;;16.56;100.00;64706.63;5072030;28;20209;-51
2023/10/05 00:26:36;;;;;;;16.88;7.78;;;;;;;16.56;100.00;64709.69;5072057;28;20217;-55
2023/10/05 00:31:47;;;;;;;17.67;8.23;;;;;;;16.47;100.00;64699.22;5072453;28;20630;-52
2023/10/05 00:34:27;;;;;;;11.65;7.65;;;;;;;16.47;100.00;64699.22;5070789;28;20266;-54
2023/10/05 00:36:58;;;;;;;13.63;8.85;;;;;;;16.54;100.00;64706.97;5071805;28;20216;-52
2023/10/05 00:39:25;;;;;;;14.55;8.50;;;;;;;16.49;100.00;64696.34;5072074;28;20161;-52
2023/10/05 00:44:30;;;;;;;14.27;8.68;;;;;;;16.47;100.00;64694.13;5071966;28;20736;-54
2023/10/05 00:47:00;;;;;;;12.70;7.82;;;;;;;16.52;100.00;64705.28;5070382;28;20295;-56
2023/10/05 00:49:37;;;;;;;14.75;8.98;;;;;;;16.51;100.00;64703.66;5071787;28;20201;-54
2023/10/05 00:52:15;;;;;;;15.82;7.53;;;;;;;16.49;100.00;64702.00;5070634;28;20212;-54
2023/10/05 00:54:44;;;;;;;13.82;7.60;;;;;;;16.46;100.00;64696.13;5071727;28;20200;-54
2023/10/05 00:57:13;;;;;;;14.90;7.75;;;;;;;16.49;100.00;64701.44;5071875;28;20217;-55
2023/10/05 00:59:42;;;;;;;16.73;7.97;;;;;;;16.48;100.00;64698.31;5071453;28;20187;-54
2023/10/05 01:02:16;;;;;;;12.48;7.85;;;;;;;16.45;100.00;64695.03;5071819;28;20529;-54
2023/10/05 01:07:18;;;;;;;18.48;7.97;;;;;;;16.38;100.00;64686.78;5071692;28;20205;-51
2023/10/05 01:14:51;;;;;;;11.40;7.45;;;;;;;16.35;100.00;64686.00;5071462;28;20219;-51
2023/10/05 01:17:20;;;;;;;14.40;8.07;;;;;;;16.35;100.00;64686.00;5071857;28;20205;-51
2023/10/05 01:19:50;;;;;;;12.82;7.75;;;;;;;16.40;100.00;64691.53;5071192;28;20200;-52
2023/10/05 01:22:16;;;;;;;11.90;8.00;;;;;;;16.44;100.00;64693.38;5071469;28;20223;-52
2023/10/05 01:24:45;;;;;;;10.15;7.35;;;;;;;16.42;100.00;64693.72;5071249;28;20765;-51
2023/10/05 01:27:11;;;;;;;16.20;7.50;;;;;;;16.46;100.00;64698.66;5071286;28;20213;-51
2023/10/05 01:29:36;;;;;;;12.27;7.72;;;;;;;16.54;100.00;64707.50;5071038;28;20250;-51
2023/10/05 01:32:02;;;;;;;10.13;6.95;;;;;;;16.68;100.00;64722.38;5070949;28;20213;-51
2023/10/05 01:34:28;;;;;;;12.68;7.50;;;;;;;16.57;100.00;64708.28;5070863;28;20693;-52
2023/10/05 01:36:54;;;;;;;14.38;7.53;;;;;;;16.51;100.00;64703.66;5070809;28;20212;-51
2023/10/05 01:39:21;;;;;;;14.27;7.78;;;;;;;16.49;100.00;64702.00;5069544;28;20724;-52
2023/10/05 01:41:48;;;;;;;11.30;7.97;;;;;;;16.56;100.00;64707.16;5069764;28;20213;-52
2023/10/05 01:44:14;;;;;;;13.20;6.65;;;;;;;16.59;100.00;64710.47;5070738;28;20216;-51
2023/10/05 01:46:40;;;;;;;10.55;6.90;;;;;;;16.64;100.00;64715.97;5070689;28;20212;-52
2023/10/05 01:49:05;;;;;;;13.20;7.43;;;;;;;16.67;100.00;64719.28;5070750;28;20196;-52
2023/10/05 01:51:31;;;;;;;8.60;6.07;;;;;;;16.60;100.00;64711.56;5070809;28;20201;-51
2023/10/05 01:54:04;;;;;;;11.68;6.97;;;;;;;16.51;100.00;64704.22;5071065;28;20257;-51
2023/10/05 01:56:29;;;;;;;10.02;6.38;;;;;;;16.55;100.00;64708.63;5069360;28;20204;-51
2023/10/05 01:58:55;;;;;;;12.07;6.90;;;;;;;16.59;100.00;64713.00;5069452;28;20208;-53
2023/10/05 02:01:21;;;;;;;19.05;7.68;;;;;;;16.62;100.00;64713.75;5070634;28;20585;-54
2023/10/05 02:03:54;;;;;;;9.55;6.53;;;;;;;16.76;100.00;64729.19;5070694;28;20246;-54
2023/10/05 02:06:20;;;;;;;14.52;7.55;;;;;;;16.67;100.00;64721.28;5070648;28;20208;-53
2023/10/05 02:08:46;;;;;;;13.75;7.07;;;;;;;16.63;100.00;64717.41;5070543;28;20253;-54
2023/10/05 02:11:23;;;;;;;11.57;7.63;;;;;;;16.69;100.00;64724.03;5070659;28;20208;-52
2023/10/05 02:13:49;;;;;;;12.88;7.63;;;;;;;16.76;100.00;64731.75;5072336;28;20196;-52
2023/10/05 02:16:17;;;;;;;13.32;8.15;;;;;;;16.66;100.00;64717.63;5073896;28;20639;-52
2023/10/05 02:18:43;;;;;;;11.32;8.18;;;;;;;16.48;100.00;64697.78;5074286;28;20211;-51
2023/10/05 02:21:17;;;;;;;13.90;7.05;;;;;;;16.40;100.00;64691.53;5073866;28;20204;-51
2023/10/05 02:23:51;;;;;;;14.30;7.97;;;;;;;16.34;100.00;64688.00;5074073;28;20259;-52
2023/10/05 02:26:33;;;;;;;17.55;7.80;;;;;;;16.21;100.00;64671.16;5074013;28;20204;-52
2023/10/05 02:29:00;;;;;;;12.00;7.53;;;;;;;16.08;100.00;64654.31;5073927;28;20666;-51
2023/10/05 02:31:28;;;;;;;10.73;6.82;;;;;;;16.03;100.00;64651.34;5073999;28;20209;-52
2023/10/05 02:33:57;;;;;;;12.35;7.07;;;;;;;15.97;100.00;64639.66;5073792;28;20262;-54
2023/10/05 02:36:30;;;;;;;11.70;6.85;;;;;;;15.87;100.00;64634.31;5073699;28;20230;-52
2023/10/05 02:38:56;;;;;;;10.48;6.45;;;;;;;15.76;100.00;64619.66;5072575;28;20260;-52
2023/10/05 02:41:39;;;;;;;12.95;7.20;;;;;;;15.75;100.00;64620.53;5073490;28;20610;-53
2023/10/05 02:44:17;;;;;;;13.63;6.55;;;;;;;15.60;100.00;64604.03;5072316;28;20224;-51
2023/10/05 02:46:47;;;;;;;13.77;8.07;;;;;;;15.58;100.00;64596.75;5072627;28;20576;-52
2023/10/05 02:49:15;;;;;;;12.52;6.95;;;;;;;15.42;100.00;64586.75;5073540;28;20197;-52
2023/10/05 02:51:41;;;;;;;14.25;7.20;;;;;;;15.35;100.00;64576.53;5073396;28;20220;-52
2023/10/05 02:54:10;;;;;;;15.02;7.40;;;;;;;15.43;100.00;64585.34;5072116;28;20635;-51
2023/10/05 02:56:36;;;;;;;14.52;7.78;;;;;;;15.40;100.00;64582.56;5073355;28;20209;-52
2023/10/05 02:59:03;;;;;;;11.27;6.82;;;;;;;15.49;100.00;64587.41;5073440;28;20226;-52
2023/10/05 03:01:32;;;;;;;15.25;8.35;;;;;;;15.47;100.00;64590.28;5071854;28;20212;-52
2023/10/05 03:04:09;;;;;;;11.95;7.45;;;;;;;15.56;100.00;64602.16;5073186;28;20347;-52
2023/10/05 03:06:36;;;;;;;12.48;6.95;;;;;;;15.56;100.00;64602.16;5073182;28;20215;-52
2023/10/05 03:09:07;;;;;;;14.35;8.18;;;;;;;15.61;100.00;64602.59;5071945;28;20200;-52
2023/10/05 03:11:42;;;;;;;14.60;7.65;;;;;;;15.63;100.00;64604.81;5073470;28;20216;-51
2023/10/05 03:14:12;;;;;;;14.15;7.47;;;;;;;15.71;100.00;64616.69;5073103;28;20203;-51
2023/10/05 03:16:47;;;;;;;10.73;6.82;;;;;;;15.78;100.00;64624.38;5073213;28;20209;-51
2023/10/05 03:19:22;;;;;;;8.95;7.00;;;;;;;15.80;100.00;64623.50;5073224;28;20192;-52
2023/10/05 03:21:50;;;;;;;11.13;7.15;;;;;;;15.81;100.00;64624.59;5073204;28;20220;-53
2023/10/05 03:24:24;;;;;;;14.85;7.00;;;;;;;15.79;100.00;64625.50;5071899;28;20205;-51
2023/10/05 03:26:51;;;;;;;9.75;7.10;;;;;;;15.84;100.00;64628.44;5071679;28;20237;-51
2023/10/05 03:29:17;;;;;;;8.95;6.63;;;;;;;16.03;100.00;64648.81;5072758;28;20201;-52
2023/10/05 03:32:04;;;;;;;12.10;6.30;;;;;;;16.18;100.00;64667.84;5073096;28;20261;-53
2023/10/05 03:34:32;;;;;;;15.85;7.97;;;;;;;16.03;100.00;64648.25;5072785;28;20220;-52
2023/10/05 03:37:03;;;;;;;11.10;7.82;;;;;;;15.89;100.00;64633.41;5073112;28;20236;-54
2023/10/05 03:39:33;;;;;;;13.15;7.55;;;;;;;15.61;100.00;64605.13;5071477;28;20189;-57
2023/10/05 03:41:59;;;;;;;10.38;7.57;;;;;;;15.73;100.00;64618.91;5072983;28;20308;-56
2023/10/05 03:44:26;;;;;;;11.07;6.63;;;;;;;15.54;100.00;64597.97;5071359;28;20208;-52
2023/10/05 03:46:52;;;;;;;10.50;6.47;;;;;;;15.43;100.00;64585.88;5072593;28;20209;-55
2023/10/05 03:49:21;;;;;;;11.50;7.03;;;;;;;15.19;100.00;64558.94;5072744;28;20253;-53
2023/10/05 03:51:50;;;;;;;11.80;7.00;;;;;;;15.08;100.00;64549.91;5072689;28;20253;-54
2023/10/05 03:54:24;;;;;;;13.73;7.40;;;;;;;15.09;100.00;64548.47;5072710;28;20215;-53
2023/10/05 03:56:58;;;;;;;12.02;7.88;;;;;;;15.20;100.00;64560.56;5071441;28;20215;-55
2023/10/05 03:59:24;;;;;;;11.80;7.07;;;;;;;15.43;100.00;64585.34;5071403;28;20200;-53
2023/10/05 04:01:49;;;;;;;16.13;7.05;;;;;;;15.26;100.00;64567.16;5072387;28;20209;-52
2023/10/05 04:04:16;;;;;;;8.65;6.68;;;;;;;15.11;100.00;64548.13;5072484;28;20231;-52
2023/10/05 04:06:42;;;;;;;17.13;8.23;;;;;;;15.01;100.00;64540.22;5072314;28;20240;-55
2023/10/05 04:09:15;;;;;;;19.38;7.00;;;;;;;14.97;100.00;64533.28;5072517;28;20208;-52
2023/10/05 04:11:42;;;;;;;13.25;8.43;;;;;;;15.03;100.00;64542.44;5070895;28;20220;-54
2023/10/05 04:14:09;;;;;;;12.52;8.18;;;;;;;14.99;100.00;64537.47;5072354;28;20197;-54
2023/10/05 04:16:34;;;;;;;15.27;6.90;;;;;;;15.05;100.00;64544.63;5072333;28;20717;-55
2023/10/05 04:19:04;;;;;;;10.35;6.90;;;;;;;15.15;100.00;64552.53;5072186;28;20299;-52
2023/10/05 04:21:33;;;;;;;13.32;8.00;;;;;;;15.09;100.00;64549.03;5070881;28;20209;-53
2023/10/05 04:23:59;;;;;;;14.45;8.75;;;;;;;15.05;100.00;64544.63;5072257;28;20209;-54
2023/10/05 04:26:33;;;;;;;16.42;9.75;;;;;;;15.07;100.00;64546.25;5072173;28;20299;-55
2023/10/05 04:29:07;;;;;;;13.00;8.63;;;;;;;15.14;100.00;64552.00;5072125;28;20231;-54
2023/10/05 04:31:32;;;;;;;17.75;9.27;;;;;;;15.12;100.00;64549.25;5054715;28;20287;-55
2023/10/05 04:33:59;;;;;;;20.27;8.35;;;;;;;15.14;100.00;64557.06;5072053;28;20586;-54
2023/10/05 04:36:25;;;;;;;14.82;9.13;;;;;;;15.11;100.00;64551.22;5071542;28;20342;-55
2023/10/05 04:38:56;;;;;;;17.27;8.90;;;;;;;15.23;100.00;64561.31;5071958;28;20200;-53
2023/10/05 04:41:28;;;;;;;10.45;8.43;;;;;;;15.31;100.00;64569.59;5071752;28;20212;-54
2023/10/05 04:43:58;;;;;;;12.32;8.85;;;;;;;15.25;100.00;64566.06;5070428;28;20283;-54
2023/10/05 04:46:24;;;;;;;15.63;8.95;;;;;;;15.23;100.00;64560.78;5070378;28;20702;-54
2023/10/05 04:49:07;;;;;;;18.88;9.30;;;;;;;15.24;100.00;64564.97;5071539;28;20193;-53
2023/10/05 04:51:37;;;;;;;13.48;9.10;;;;;;;15.34;100.00;64572.88;5070154;28;20295;-54
2023/10/05 04:54:04;;;;;;;15.00;9.80;;;;;;;15.37;100.00;64578.72;5071807;28;20204;-53
2023/10/05 05:07:06;;;;;;;17.25;9.32;;;;;;;15.51;100.00;64594.13;5072029;28;20678;-53
2023/10/05 05:09:34;;;;;;;15.05;9.30;;;;;;;15.42;100.00;64582.25;5071229;28;20245;-52
2023/10/05 05:12:04;;;;;;;16.92;9.00;;;;;;;15.43;100.00;64585.34;5071596;28;20213;-53
2023/10/05 05:14:35;;;;;;;12.73;8.43;;;;;;;15.66;100.00;64610.63;5071400;28;20235;-52
2023/10/05 05:17:04;;;;;;;13.18;8.70;;;;;;;15.56;100.00;64597.66;5071360;28;20224;-53
2023/10/05 05:19:30;;;;;;;17.05;8.82;;;;;;;15.75;100.00;64621.09;5071415;28;20197;-51
2023/10/05 05:22:05;;;;;;;14.35;8.93;;;;;;;15.59;100.00;64603.50;5071500;28;20223;-52
2023/10/05 05:24:32;;;;;;;15.73;7.78;;;;;;;15.60;100.00;64601.50;5069731;28;20315;-52
2023/10/05 05:27:04;;;;;;;15.07;8.73;;;;;;;15.52;100.00;64595.22;5071239;28;20212;-52
2023/10/05 05:29:35;;;;;;;13.30;8.32;;;;;;;15.56;100.00;64595.09;5071390;28;20199;-52
2023/10/05 05:32:07;;;;;;;15.70;8.77;;;;;;;15.51;100.00;64592.16;5071303;28;20209;-53
2023/10/05 05:34:33;;;;;;;17.15;8.45;;;;;;;15.54;100.00;64597.44;5071018;28;20200;-52
2023/10/05 05:36:59;;;;;;;25.35;8.00;;;;;;;15.47;100.00;64587.75;5069346;28;20702;-51
2023/10/05 05:39:26;;;;;;;16.52;8.70;;;;;;;15.51;100.00;64591.59;5069956;28;20244;-52
2023/10/05 05:41:59;;;;;;;17.88;8.02;;;;;;;15.56;100.00;64594.56;5068454;28;20267;-53
2023/10/05 05:44:28;;;;;;;16.63;7.20;;;;;;;15.56;100.00;64599.63;5068580;28;20227;-52
2023/10/05 05:46:59;;;;;;;15.48;7.25;;;;;;;15.64;100.00;64608.44;5070405;28;20217;-52
2023/10/05 05:49:27;;;;;;;12.00;7.43;;;;;;;15.68;100.00;64610.28;5068607;28;20667;-53
2023/10/05 05:51:57;;;;;;;10.85;7.32;;;;;;;15.63;100.00;64607.34;5069640;28;20228;-52
2023/10/05 05:54:23;;;;;;;16.52;7.93;;;;;;;15.70;100.00;64615.03;5069547;28;20193;-53
2023/10/05 05:56:54;;;;;;;17.92;9.30;;;;;;;15.78;100.00;64621.28;5071018;28;20205;-52
2023/10/05 05:59:22;;;;;;;15.45;8.38;;;;;;;15.88;100.00;64632.84;5076777;22;20229;-52
2023/10/05 06:01:50;;;;;;;19.55;8.05;;;;;;;15.81;100.00;64627.13;5070649;28;20212;-53
2023/10/05 06:04:16;;;;;;;16.70;7.53;;;;;;;15.93;100.00;64640.34;5070793;28;20705;-51
2023/10/05 06:06:43;;;;;;;11.70;6.90;;;;;;;16.01;100.00;64651.69;5070510;28;20201;-56
2023/10/05 06:09:11;;;;;;;15.68;6.82;;;;;;;15.70;100.00;64615.03;5069242;28;20287;-52
2023/10/05 06:11:40;;;;;;;16.02;7.70;;;;;;;15.70;100.00;64609.94;5070465;28;20212;-53
2023/10/05 06:14:06;;;;;;;19.20;7.55;;;;;;;15.92;100.00;64637.25;5069407;28;20246;-52
2023/10/05 06:16:34;;;;;;;14.00;7.78;;;;;;;15.90;100.00;64637.03;5070378;28;20258;-51
2023/10/05 06:19:00;;;;;;;17.83;9.18;;;;;;;16.02;100.00;64649.72;5069466;28;20204;-54
2023/10/05 06:21:25;;;;;;;17.10;7.80;;;;;;;15.89;100.00;64636.50;5070645;28;20208;-54
2023/10/05 06:23:51;;;;;;;14.65;8.10;;;;;;;15.90;100.00;64635.06;5070356;28;20216;-54
2023/10/05 06:26:17;;;;;;;16.55;7.63;;;;;;;15.99;100.00;64644.41;5070414;28;20271;-55
2023/10/05 06:28:43;;;;;;;13.90;7.60;;;;;;;16.09;100.00;64657.41;5070539;28;20274;-54
2023/10/05 06:31:12;;;;;;;17.75;8.05;;;;;;;16.16;100.00;64663.09;5070316;28;20678;-54
2023/10/05 06:33:41;;;;;;;13.20;7.72;;;;;;;16.20;100.00;64669.50;5070448;28;20211;-53
2023/10/05 06:36:07;;;;;;;16.58;8.10;;;;;;;16.29;99.00;64674.88;5070174;28;20211;-54
2023/10/05 06:38:33;;;;;;;18.17;7.55;;;;;;;16.55;97.71;64705.50;5070336;28;20292;-53
2023/10/05 06:40:59;;;;;;;18.85;8.10;;;;;;;16.45;99.05;64695.03;5070442;28;20259;-54
2023/10/05 06:43:26;;;;;;;15.40;8.70;;;;;;;16.59;97.89;64713.00;5070300;28;20232;-53
2023/10/05 06:45:52;;;;;;;21.13;8.40;;;;;;;16.68;97.49;64720.38;5070033;28;20197;-54
2023/10/05 06:48:18;;;;;;;12.40;6.93;;;;;;;16.83;94.11;64738.34;5070460;28;20232;-54
2023/10/05 06:50:43;;;;;;;12.48;6.55;;;;;;;16.94;94.33;64748.47;5070266;28;20240;-54
2023/10/05 06:53:11;;;;;;;19.38;7.82;;;;;;;16.84;95.08;64739.44;5068890;28;20209;-54
2023/10/05 06:55:36;;;;;;;18.30;6.50;;;;;;;17.12;90.65;64770.84;5069980;28;20622;-52
2023/10/05 06:58:06;;;;;;;21.65;6.97;;;;;;;16.95;92.22;64752.09;5069975;28;20240;-52
2023/10/05 07:00:31;;;;;;;14.82;5.93;;;;;;;17.07;89.82;64762.25;5072746;28;20593;-52
2023/10/05 07:02:58;;;;;;;10.45;5.20;;;;;;;17.12;88.05;64770.84;5072162;28;20220;-52
2023/10/05 07:05:24;;;;;;;10.27;5.50;;;;;;;17.24;87.98;64783.50;5072029;28;20265;-52
2023/10/05 07:07:50;;;;;;;14.73;5.35;;;;;;;17.12;86.27;64770.84;5073595;28;20239;-52
2023/10/05 07:10:17;;;;;;;10.60;4.55;;;;;;;17.10;84.08;64766.09;5073474;28;20213;-52
2023/10/05 07:12:48;;;;;;;12.82;4.65;;;;;;;17.09;84.83;64767.00;5073480;28;20212;-52
2023/10/05 07:15:23;;;;;;;16.80;5.22;;;;;;;17.12;84.42;64770.84;5071945;28;20658;-58
2023/10/05 07:17:49;;;;;;;12.23;4.95;;;;;;;17.31;83.46;64788.69;5073385;28;20674;-53
2023/10/05 07:20:16;;;;;;;14.10;5.25;;;;;;;17.48;83.16;64807.97;5072163;28;20205;-52
2023/10/05 07:22:44;;;;;;;10.00;4.47;;;;;;;17.73;84.90;64831.88;5073082;28;20204;-52
2023/10/05 07:25:28;;;;;;;14.35;4.75;;;;;;;17.71;80.31;64832.78;5071735;28;20223;-51
2023/10/05 07:27:53;;;;;;;10.77;4.07;;;;;;;17.75;80.86;64837.19;5071869;28;20197;-53
2023/10/05 07:30:19;;;;;;;19.48;4.13;;;;;;;17.91;79.53;64854.28;5072983;28;20208;-54
2023/10/05 07:32:51;;;;;;;10.35;3.70;;;;;;;18.07;80.43;64872.47;5073218;28;20207;-52
2023/10/05 07:35:17;;;;;;;9.95;5.57;;;;;;;18.23;80.19;64887.56;5073185;28;20196;-52
2023/10/05 07:37:43;;;;;;;9.90;4.88;;;;;;;18.43;78.88;64914.75;5073019;28;20212;-53
2023/10/05 07:40:09;;;;;;;10.32;4.90;;;;;;;18.59;76.70;64929.28;5072984;28;20575;-51
2023/10/05 07:42:37;;;;;;;12.23;4.75;;;;;;;18.84;75.59;64959.44;5072850;28;20295;-52
2023/10/05 07:45:07;;;;;;;11.25;5.50;;;;;;;19.16;75.98;64991.63;5072608;28;20697;-51
2023/10/05 07:47:39;;;;;;;12.35;5.18;;;;;;;19.40;74.42;65015.03;5071312;28;20698;-52
2023/10/05 07:50:06;;;;;;;11.73;5.07;;;;;;;19.29;73.96;65005.97;5072702;28;20208;-51
2023/10/05 07:52:34;;;;;;;7.57;5.07;;;;;;;19.49;72.59;65030.09;5072384;28;20266;-54
2023/10/05 07:55:01;;;;;;;18.10;5.32;;;;;;;19.56;71.30;65032.69;5073160;28;20595;-54
2023/10/05 07:57:27;;;;;;;9.82;5.05;;;;;;;19.85;70.96;65065.28;5072586;28;20242;-54
2023/10/05 07:59:53;;;;;;;12.60;5.38;;;;;;;19.91;71.34;65071.91;5071634;28;20177;-54
2023/10/05 08:02:18;;;;;;;13.48;5.63;;;;;;;20.03;70.45;65087.16;5072325;28;20597;-53
2023/10/05 08:04:44;;;;;;;14.57;5.30;;;;;;;19.68;71.23;65049.06;5072910;28;20216;-54
2023/10/05 08:07:11;;;;;;;9.20;5.25;;;;;;;20.33;68.49;65120.34;5072319;28;20304;-54
2023/10/05 08:09:36;;;;;;;11.80;5.28;;;;;;;20.49;66.08;65135.44;5071197;28;20255;-53
2023/10/05 08:12:02;;;;;;;10.80;4.35;;;;;;;20.72;65.13;65160.88;5071457;28;20586;-54
2023/10/05 08:14:30;;;;;;;13.43;4.47;;;;;;;20.81;65.70;65170.81;5072317;28;20694;-54
2023/10/05 08:16:56;;;;;;;8.68;4.70;;;;;;;21.09;64.86;65206.38;5072166;28;20208;-53
2023/10/05 08:19:29;;;;;;;16.83;6.78;;;;;;;21.23;62.98;65219.28;5072183;28;20271;-54
2023/10/05 08:21:55;;;;;;;13.27;5.80;;;;;;;21.31;62.72;65225.03;5072207;28;20227;-54
2023/10/05 08:24:21;;;;;;;9.18;5.30;;;;;;;21.14;63.22;65206.78;5070968;28;20217;-56
2023/10/05 08:26:50;;;;;;;14.20;5.40;;;;;;;21.00;64.10;65191.28;5072202;28;20208;-52
2023/10/05 08:29:16;;;;;;;9.77;5.47;;;;;;;21.12;62.74;65204.56;5072257;28;20201;-51
2023/10/05 08:31:44;;;;;;;8.45;4.72;;;;;;;21.14;63.13;65206.78;5064663;22;20229;-52
2023/10/05 08:34:11;;;;;;;8.02;4.85;;;;;;;21.59;61.33;65261.13;5072216;28;20283;-53
2023/10/05 08:36:38;;;;;;;10.85;5.15;;;;;;;21.97;61.46;65295.50;5071838;28;20212;-52
2023/10/05 08:39:04;;;;;;;13.73;4.72;;;;;;;22.44;59.14;65352.09;5054178;28;20665;-54
2023/10/05 08:41:36;;;;;;;14.30;4.85;;;;;;;22.43;58.81;65350.97;5072045;28;20212;-52
2023/10/05 08:44:11;;;;;;;13.27;5.13;;;;;;;22.82;58.13;65391.63;5072067;28;20216;-52
2023/10/05 08:46:57;;;;;;;15.45;5.88;;;;;;;22.35;57.72;65342.13;5071860;28;20204;-51
2023/10/05 08:49:24;;;;;;;11.65;5.43;;;;;;;23.19;57.57;65429.47;5071872;28;20681;-51
2023/10/05 08:51:50;;;;;;;14.48;5.45;;;;;;;22.97;56.79;65407.66;5071674;28;20248;-51
2023/10/05 08:54:16;;;;;;;8.90;4.80;;;;;;;23.90;54.40;65510.75;5053764;28;20205;-52
2023/10/05 08:56:47;;;;;;;10.43;5.28;;;;;;;24.29;52.53;65553.44;5071587;28;20270;-51
2023/10/05 08:59:13;;;;;;;9.85;5.80;;;;;;;24.13;52.96;65535.72;5071491;28;20205;-53
2023/10/05 09:01:42;;;;;;;11.73;5.60;;;;;;;23.87;52.82;65506.88;5071483;28;20261;-54
2023/10/05 09:06:52;;;;;;;10.38;5.30;;;;;;;24.42;51.73;65569.88;5071546;28;20209;-53
2023/10/05 09:09:51;;;;;;;7.53;5.55;;;;;;;24.12;51.67;65535.16;5071380;28;20219;-54
2023/10/05 09:12:46;;;;;;;11.43;5.88;;;;;;;24.31;51.56;65555.09;5071415;28;20209;-53
2023/10/05 09:20:33;;;;;;;12.23;5.85;;;;;;;25.46;49.53;65685.31;5071292;28;20228;-52
2023/10/05 09:23:11;;;;;;;10.13;6.30;;;;;;;25.29;48.46;65663.84;5071091;28;20231;-52
2023/10/05 09:25:38;;;;;;;16.33;5.53;;;;;;;25.48;48.87;65684.41;5071400;28;20655;-52
2023/10/05 09:28:15;;;;;;;8.52;5.97;;;;;;;25.82;49.29;65721.59;5071057;28;20204;-52
2023/10/05 09:30:55;;;;;;;15.50;6.10;;;;;;;26.20;49.11;65763.81;5071309;28;20649;-52
2023/10/05 09:33:21;;;;;;;15.20;5.65;;;;;;;26.52;46.58;65799.91;5071056;28;20212;-52
2023/10/05 09:35:46;;;;;;;8.45;5.78;;;;;;;26.70;47.00;65816.78;5053198;28;20231;-52
2023/10/05 09:38:19;;;;;;;9.77;5.90;;;;;;;26.77;46.35;65827.16;5070685;28;20265;-52
2023/10/05 09:40:47;;;;;;;13.90;6.25;;;;;;;27.06;45.25;65856.25;5070690;28;20216;-55
2023/10/05 09:43:18;;;;;;;11.95;5.90;;;;;;;26.98;45.44;65850.50;5070618;28;20212;-52
2023/10/05 09:45:49;;;;;;;13.15;6.63;;;;;;;25.88;46.65;65728.81;5070837;28;20329;-55
2023/10/05 09:48:16;;;;;;;11.63;6.50;;;;;;;25.14;47.65;65644.63;5070488;28;20242;-53
2023/10/05 09:50:43;;;;;;;13.32;6.00;;;;;;;25.41;48.51;65674.59;5070926;28;20210;-57
2023/10/05 09:53:11;;;;;;;13.35;6.80;;;;;;;25.66;46.80;65702.34;5070537;28;20205;-52
2023/10/05 09:55:40;;;;;;;12.52;6.15;;;;;;;25.23;47.66;65657.19;5070793;28;20188;-51
2023/10/05 09:58:12;;;;;;;9.27;6.00;;;;;;;26.06;47.50;65748.78;5070814;28;20219;-53
2023/10/05 10:03:05;;;;;;;14.23;6.30;;;;;;;25.80;46.26;65722.50;5070714;28;20670;-55
2023/10/05 10:05:42;;;;;;;13.25;6.25;;;;;;;25.33;47.72;65668.28;5070189;28;20208;-55
2023/10/05 10:08:12;;;;;;;13.70;6.72;;;;;;;25.36;47.12;65671.06;5070767;28;20216;-54
2023/10/05 10:10:43;;;;;;;9.40;5.60;;;;;;;26.20;45.74;65764.38;5070492;28;20204;-54
2023/10/05 10:13:12;;;;;;;10.18;5.93;;;;;;;26.86;45.61;65834.03;5052910;28;20251;-52
2023/10/05 10:15:47;;;;;;;9.10;5.90;;;;;;;27.38;43.88;65894.44;5070292;28;20207;-53
2023/10/05 10:18:15;;;;;;;9.18;6.18;;;;;;;26.91;43.39;65842.72;5052245;28;20216;-52
2023/10/05 10:20:46;;;;;;;10.18;5.88;;;;;;;27.24;43.73;65879.41;5052809;28;20212;-50
2023/10/05 10:23:18;;;;;;;11.85;5.93;;;;;;;27.80;43.98;65941.13;5052225;28;20205;-52
2023/10/05 10:25:45;;;;;;;11.70;6.43;;;;;;;27.68;42.52;65925.19;5052745;28;20212;-52
2023/10/05 10:28:16;;;;;;;12.73;5.88;;;;;;;28.05;42.30;65968.97;5070450;28;20219;-52
2023/10/05 10:31:17;;;;;;;17.80;6.18;;;;;;;28.00;41.38;65963.41;5070272;28;20244;-52
2023/10/05 10:33:52;;;;;;;10.95;5.95;;;;;;;27.42;42.41;65898.88;5070478;28;20527;-52
2023/10/05 10:36:23;;;;;;;11.77;5.72;;;;;;;27.82;42.35;65942.81;5073874;28;20590;-52
2023/10/05 10:38:50;;;;;;;11.48;6.18;;;;;;;28.28;41.43;65994.00;5072707;28;20200;-51
2023/10/05 10:41:17;;;;;;;10.95;5.28;;;;;;;27.64;42.37;65923.34;5073708;28;20265;-51
2023/10/05 10:43:49;;;;;;;16.40;6.50;;;;;;;27.20;43.02;65874.97;5073610;28;20224;-52
2023/10/05 10:46:30;;;;;;;12.95;5.95;;;;;;;28.40;41.55;66004.22;5073860;28;20200;-52
2023/10/05 10:48:59;;;;;;;9.50;5.32;;;;;;;28.75;40.92;66043.75;5074017;28;20200;-53
2023/10/05 10:51:32;;;;;;;9.13;5.43;;;;;;;27.89;41.09;65950.59;5073756;28;20205;-52
2023/10/05 10:54:14;;;;;;;13.48;6.45;;;;;;;27.13;42.14;65866.63;5073859;28;20193;-51
2023/10/05 10:56:43;;;;;;;16.85;7.40;;;;;;;26.47;43.73;65791.78;5073664;28;20303;-55
2023/10/05 10:59:20;;;;;;;12.73;6.25;;;;;;;26.02;43.73;65743.81;5073607;28;20200;-51
2023/10/05 11:01:59;;;;;;;9.55;6.05;;;;;;;27.10;43.45;65863.28;5073394;28;20265;-53
2023/10/05 11:04:36;;;;;;;10.10;6.63;;;;;;;27.49;41.72;65906.13;5073407;28;20299;-52
2023/10/05 11:07:07;;;;;;;9.38;6.00;;;;;;;26.69;42.63;65815.66;5073336;28;20289;-53
2023/10/05 11:09:47;;;;;;;12.25;7.00;;;;;;;26.55;43.30;65800.66;5073795;28;20204;-52
2023/10/05 11:12:16;;;;;;;13.43;6.38;;;;;;;26.61;42.74;65807.34;5057097;28;20200;-52
2023/10/05 11:14:43;;;;;;;10.05;6.32;;;;;;;27.07;42.63;65857.38;5073681;28;20209;-52
2023/10/05 11:17:46;;;;;;;14.20;6.65;;;;;;;27.69;41.22;65928.34;5073270;28;20215;-54
2023/10/05 11:20:25;;;;;;;14.18;6.82;;;;;;;27.37;41.86;65893.88;5073702;28;20217;-54
2023/10/05 11:22:55;;;;;;;12.85;6.07;;;;;;;26.93;42.29;65844.38;5073142;28;20243;-53
2023/10/05 11:25:31;;;;;;;10.63;6.68;;;;;;;27.21;42.21;65875.53;5073406;28;20209;-53
2023/10/05 11:27:59;;;;;;;11.75;6.63;;;;;;;26.68;42.47;65816.59;5073116;28;20207;-56
2023/10/05 11:30:41;;;;;;;11.50;6.47;;;;;;;26.44;43.09;65790.47;5055596;28;20283;-53
2023/10/05 11:33:17;;;;;;;12.40;6.78;;;;;;;27.13;42.05;65864.59;5055229;28;20365;-54
2023/10/05 11:35:53;;;;;;;17.63;6.38;;;;;;;27.67;40.52;65924.09;5073443;28;20211;-54
2023/10/05 11:38:26;;;;;;;9.52;6.40;;;;;;;27.08;41.25;65859.03;5054981;28;20250;-56
2023/10/05 11:40:56;;;;;;;9.82;6.05;;;;;;;27.16;42.50;65870.53;5073022;28;20698;-54
2023/10/05 11:43:30;;;;;;;11.95;5.95;;;;;;;27.55;41.94;65910.19;5038615;28;20209;-56
2023/10/05 11:45:59;;;;;;;10.95;6.05;;;;;;;28.20;41.34;65983.06;5072197;28;20204;-54
2023/10/05 11:48:48;;;;;;;13.18;6.45;;;;;;;28.89;40.68;66056.16;5073019;28;20291;-55
2023/10/05 11:51:19;;;;;;;14.05;6.57;;;;;;;29.09;39.38;66083.09;5072797;28;20270;-54
2023/10/05 11:53:46;;;;;;;13.25;6.55;;;;;;;28.98;39.76;66068.78;5038516;28;20289;-54
2023/10/05 11:56:17;;;;;;;11.82;6.65;;;;;;;28.35;40.40;66001.78;5072586;28;20208;-54
2023/10/05 11:58:46;;;;;;;11.45;6.55;;;;;;;28.68;40.58;66033.38;5072812;28;20674;-55
2023/10/05 12:01:12;;;;;;;10.35;6.32;;;;;;;28.66;39.62;66033.72;5072750;28;20204;-52
2023/10/05 12:03:44;;;;;;;14.05;7.00;;;;;;;28.14;39.39;65978.97;5054414;28;20216;-53
2023/10/05 12:06:11;;;;;;;9.48;6.18;;;;;;;28.40;40.42;66004.22;5072796;28;20212;-53
2023/10/05 12:08:37;;;;;;;8.20;6.07;;;;;;;28.66;40.11;66035.78;5054569;28;20215;-55
2023/10/05 12:11:04;;;;;;;9.85;5.93;;;;;;;28.93;39.39;66063.78;5072597;28;20201;-57